Time;durP1;ratioP1;P1;durP2;ratioP2;P2;SDS_P1;SDS_P2;PMS_P1;PMS_P2;Temp;Humidity;BMP_temperature;BMP_pressure;BME280_temperature;BME280_humidity;BME280_pressure;Samples;Min_cycle;Max_cycle;Signal;HPM_P1;HPM_P2
2024/02/02 00:02:06;;;;;;;14.10;2.45;;;6.00;99.90;;;;;;4945642;28;20079;-75
2024/02/02 00:04:31;;;;;;;11.52;2.42;;;6.10;99.90;;;;;;4945207;28;20027;-76
2024/02/02 00:06:57;;;;;;;21.38;4.53;;;6.00;99.90;;;;;;4947938;28;20059;-76
2024/02/02 00:09:23;;;;;;;15.05;3.38;;;6.00;99.90;;;;;;4947180;28;20042;-76
2024/02/02 00:11:48;;;;;;;19.50;2.70;;;6.00;99.90;;;;;;4946505;28;20039;-76
2024/02/02 00:14:14;;;;;;;15.73;3.22;;;6.00;99.90;;;;;;4945339;28;20413;-74
2024/02/02 00:16:40;;;;;;;13.23;3.42;;;6.00;99.90;;;;;;4944926;28;20032;-76
2024/02/02 00:19:05;;;;;;;8.88;3.03;;;6.00;99.90;;;;;;4940385;28;20118;-74
2024/02/02 00:21:31;;;;;;;21.75;3.92;;;6.00;99.90;;;;;;4946149;28;20128;-77
2024/02/02 00:23:56;;;;;;;18.33;4.07;;;6.00;99.90;;;;;;4943078;28;20043;-75
2024/02/02 00:26:22;;;;;;;17.67;2.67;;;6.00;99.90;;;;;;4941281;28;20035;-75
2024/02/02 00:28:47;;;;;;;20.25;3.42;;;6.00;99.90;;;;;;4945781;28;20134;-75
2024/02/02 00:31:13;;;;;;;16.15;2.85;;;6.00;99.90;;;;;;4944486;29;20146;-73
2024/02/02 00:33:38;;;;;;;26.63;2.90;;;6.00;99.90;;;;;;4941539;28;20063;-76
2024/02/02 00:36:04;;;;;;;19.75;3.38;;;6.00;99.90;;;;;;4938744;28;20455;-74
2024/02/02 00:38:30;;;;;;;17.38;3.40;;;6.00;99.90;;;;;;4945145;28;20077;-75
2024/02/02 00:40:55;;;;;;;18.70;3.72;;;6.00;99.90;;;;;;4947856;28;20047;-76
2024/02/02 00:43:21;;;;;;;14.25;3.58;;;6.00;99.90;;;;;;4941747;28;20036;-75
2024/02/02 00:45:47;;;;;;;21.45;2.83;;;6.10;99.90;;;;;;4945910;28;20031;-77
2024/02/02 00:48:12;;;;;;;26.60;3.15;;;6.10;99.90;;;;;;4939090;28;20035;-76
2024/02/02 00:50:38;;;;;;;16.17;3.80;;;6.20;99.90;;;;;;4944987;28;20512;-76
2024/02/02 00:53:03;;;;;;;21.88;4.95;;;6.10;99.90;;;;;;4946864;28;20039;-76
2024/02/02 00:55:29;;;;;;;15.90;3.70;;;6.10;99.90;;;;;;4938469;28;24169;-76
2024/02/02 00:57:55;;;;;;;17.92;3.30;;;6.20;99.90;;;;;;4943633;28;20567;-74
2024/02/02 01:00:21;;;;;;;23.88;4.63;;;6.10;99.90;;;;;;4940948;29;20054;-76
2024/02/02 01:02:46;;;;;;;12.57;2.22;;;6.20;99.90;;;;;;4940377;29;20070;-75
2024/02/02 01:05:13;;;;;;;21.25;4.32;;;6.10;99.90;;;;;;4944932;28;20520;-75
2024/02/02 01:07:39;;;;;;;21.42;3.40;;;6.10;99.90;;;;;;4971184;28;20066;-76
2024/02/02 01:10:05;;;;;;;14.80;3.00;;;6.20;99.90;;;;;;4944674;28;20504;-76
2024/02/02 01:12:32;;;;;;;17.17;3.00;;;6.10;99.90;;;;;;4943061;28;20028;-73
2024/02/02 01:14:57;;;;;;;13.57;2.55;;;6.10;99.90;;;;;;4938339;28;20062;-76
2024/02/02 01:17:23;;;;;;;19.20;4.63;;;6.20;99.90;;;;;;4942271;28;20062;-75
2024/02/02 01:19:49;;;;;;;16.85;3.72;;;6.20;99.90;;;;;;4940252;28;20035;-76
2024/02/02 01:22:15;;;;;;;18.63;2.45;;;6.20;99.90;;;;;;4951890;29;20547;-75
2024/02/02 01:24:40;;;;;;;12.88;3.20;;;6.20;99.90;;;;;;4940407;28;21558;-75
2024/02/02 01:27:06;;;;;;;22.88;4.82;;;6.20;99.90;;;;;;4947985;28;20039;-75
2024/02/02 01:29:33;;;;;;;15.02;2.65;;;6.10;99.90;;;;;;4947924;28;20039;-75
2024/02/02 01:31:59;;;;;;;10.88;2.38;;;6.20;99.90;;;;;;4945727;28;20066;-75
2024/02/02 01:34:24;;;;;;;19.05;3.03;;;6.20;99.90;;;;;;4939313;29;20089;-77
2024/02/02 01:36:51;;;;;;;15.25;3.85;;;6.20;99.90;;;;;;4945863;28;20082;-76
2024/02/02 01:39:17;;;;;;;12.48;2.70;;;6.20;99.90;;;;;;4950782;28;20037;-76
2024/02/02 01:41:44;;;;;;;21.10;4.50;;;6.20;99.90;;;;;;4945385;28;20118;-76
2024/02/02 01:44:10;;;;;;;16.20;3.75;;;6.20;99.90;;;;;;4945799;28;20051;-75
2024/02/02 01:46:35;;;;;;;11.65;2.17;;;6.20;99.90;;;;;;4946329;28;20036;-76
2024/02/02 01:49:01;;;;;;;16.45;3.10;;;6.20;99.90;;;;;;4948263;28;20042;-76
2024/02/02 01:51:27;;;;;;;13.85;3.33;;;6.20;99.90;;;;;;4945850;28;20036;-76
2024/02/02 01:53:52;;;;;;;22.63;3.53;;;6.20;99.90;;;;;;4941015;28;20412;-76
2024/02/02 01:56:18;;;;;;;18.42;3.78;;;6.20;99.90;;;;;;4950368;28;20087;-75
2024/02/02 01:58:44;;;;;;;15.13;2.97;;;6.20;99.90;;;;;;4948568;28;20032;-75
2024/02/02 02:01:10;;;;;;;20.83;3.75;;;6.10;99.90;;;;;;4975413;28;20043;-75
2024/02/02 02:03:36;;;;;;;26.10;3.28;;;6.20;99.90;;;;;;4946926;28;20061;-75
2024/02/02 02:06:02;;;;;;;11.55;3.05;;;6.10;99.90;;;;;;4940181;28;20448;-75
2024/02/02 02:08:27;;;;;;;10.85;3.75;;;6.10;99.90;;;;;;4945774;28;20050;-76
2024/02/02 02:10:53;;;;;;;19.95;5.10;;;6.10;99.90;;;;;;4948558;28;20039;-76
2024/02/02 02:13:18;;;;;;;13.63;3.70;;;6.10;99.90;;;;;;4945039;28;20032;-75
2024/02/02 02:15:44;;;;;;;14.68;3.47;;;6.10;99.90;;;;;;4947168;28;20539;-76
2024/02/02 02:18:10;;;;;;;20.92;4.13;;;6.10;99.90;;;;;;4951938;28;20027;-76
2024/02/02 02:20:36;;;;;;;16.70;2.95;;;6.00;99.90;;;;;;4940804;28;20042;-75
2024/02/02 02:23:03;;;;;;;9.00;3.50;;;6.00;99.90;;;;;;4949395;28;20027;-74
2024/02/02 02:25:28;;;;;;;9.20;2.70;;;6.00;99.90;;;;;;4946932;28;20137;-76
2024/02/02 02:27:54;;;;;;;16.20;3.65;;;6.00;99.90;;;;;;4944239;28;20051;-75
2024/02/02 02:30:20;;;;;;;28.17;4.20;;;6.00;99.90;;;;;;4949270;28;20038;-75
2024/02/02 02:32:45;;;;;;;14.23;4.03;;;6.10;99.90;;;;;;4942847;28;20412;-75
2024/02/02 02:35:11;;;;;;;16.83;2.85;;;6.00;99.90;;;;;;4947782;28;20050;-75
2024/02/02 02:37:36;;;;;;;16.70;2.92;;;6.10;99.90;;;;;;4946844;28;20034;-75
2024/02/02 02:40:02;;;;;;;20.65;3.92;;;6.00;99.90;;;;;;4943195;28;20626;-76
2024/02/02 02:42:28;;;;;;;17.38;5.00;;;6.10;99.90;;;;;;4973920;28;20038;-75
2024/02/02 02:44:53;;;;;;;14.60;3.97;;;6.00;99.90;;;;;;4950646;28;20062;-76
2024/02/02 02:47:19;;;;;;;9.95;2.58;;;6.00;99.90;;;;;;4948021;28;20062;-74
2024/02/02 02:49:45;;;;;;;13.18;3.30;;;5.90;99.90;;;;;;4947492;28;20035;-76
2024/02/02 02:52:10;;;;;;;16.45;2.53;;;5.90;99.90;;;;;;4948762;28;20043;-77
2024/02/02 02:54:36;;;;;;;17.95;3.22;;;5.80;99.90;;;;;;4945409;28;20036;-75
2024/02/02 02:57:01;;;;;;;19.38;3.38;;;5.80;99.90;;;;;;4943946;28;20040;-76
2024/02/02 02:59:28;;;;;;;12.40;3.85;;;5.80;99.90;;;;;;4944271;28;20027;-76
2024/02/02 03:01:55;;;;;;;17.48;3.50;;;5.80;99.90;;;;;;4942699;29;20047;-77
2024/02/02 03:04:21;;;;;;;10.95;2.97;;;5.80;99.90;;;;;;4951039;29;20065;-76
2024/02/02 03:06:47;;;;;;;19.92;3.78;;;5.70;99.90;;;;;;4944658;28;20127;-76
2024/02/02 03:09:12;;;;;;;11.93;2.83;;;5.70;99.90;;;;;;4974370;28;20055;-76
2024/02/02 03:11:38;;;;;;;25.92;3.80;;;5.70;99.90;;;;;;4947670;28;20042;-76
2024/02/02 03:14:04;;;;;;;15.90;4.35;;;5.60;99.90;;;;;;4942620;29;20031;-76
2024/02/02 03:16:29;;;;;;;15.48;3.28;;;5.60;99.90;;;;;;4944018;28;20046;-75
2024/02/02 03:18:55;;;;;;;15.13;2.50;;;5.60;99.90;;;;;;4947200;28;20099;-75
2024/02/02 03:21:20;;;;;;;11.18;3.03;;;5.60;99.90;;;;;;4940120;29;20087;-76
2024/02/02 03:23:46;;;;;;;13.55;3.00;;;5.60;99.90;;;;;;4945621;28;20120;-76
2024/02/02 03:26:11;;;;;;;15.93;2.58;;;5.60;99.90;;;;;;4947211;28;20050;-77
2024/02/02 03:28:37;;;;;;;7.20;2.78;;;5.50;99.90;;;;;;4943996;28;20461;-76
2024/02/02 03:31:03;;;;;;;18.58;3.05;;;5.60;99.90;;;;;;4939603;28;20039;-76
2024/02/02 03:33:29;;;;;;;13.30;2.20;;;5.50;99.90;;;;;;4945330;28;20031;-76
2024/02/02 03:35:54;;;;;;;19.20;3.10;;;5.60;99.90;;;;;;4941368;28;20102;-75
2024/02/02 03:38:20;;;;;;;19.20;3.80;;;5.60;99.90;;;;;;4945114;28;20182;-76
2024/02/02 03:40:45;;;;;;;10.38;2.20;;;5.60;99.90;;;;;;4938212;28;20396;-76
2024/02/02 03:43:11;;;;;;;9.90;2.15;;;5.50;99.90;;;;;;4943883;29;20543;-76
2024/02/02 03:45:37;;;;;;;12.40;2.67;;;5.50;99.90;;;;;;4947636;28;20507;-76
2024/02/02 03:48:03;;;;;;;14.88;3.20;;;5.50;99.90;;;;;;4943512;28;20066;-75
2024/02/02 03:50:28;;;;;;;11.25;2.67;;;5.50;99.90;;;;;;4935427;28;20044;-77
2024/02/02 03:52:57;;;;;;;11.55;2.95;;;5.50;99.90;;;;;;4941421;29;20040;-76
2024/02/02 03:55:23;;;;;;;18.00;3.85;;;5.60;99.90;;;;;;4938893;28;20095;-76
2024/02/02 03:57:49;;;;;;;12.43;3.65;;;5.50;99.90;;;;;;4945897;28;20183;-76
2024/02/02 04:00:15;;;;;;;25.73;2.95;;;5.60;99.90;;;;;;4969921;28;20517;-76
2024/02/02 04:02:42;;;;;;;19.15;2.65;;;5.60;99.90;;;;;;4941005;28;20035;-75
2024/02/02 04:05:08;;;;;;;10.60;2.70;;;5.60;99.90;;;;;;4941737;28;20035;-76
2024/02/02 04:07:33;;;;;;;11.07;2.33;;;5.70;99.90;;;;;;4944076;28;20043;-76
2024/02/02 04:09:59;;;;;;;10.43;2.58;;;5.70;99.90;;;;;;4970529;28;20083;-76
2024/02/02 04:12:24;;;;;;;10.48;1.90;;;5.70;99.90;;;;;;4938912;28;20032;-77
2024/02/02 04:14:51;;;;;;;10.50;2.47;;;5.80;99.90;;;;;;4944644;28;20127;-75
2024/02/02 04:17:16;;;;;;;18.98;2.40;;;5.80;99.90;;;;;;4940293;28;20478;-76
2024/02/02 04:19:42;;;;;;;19.00;3.80;;;5.80;99.90;;;;;;4944527;28;20039;-76
2024/02/02 04:22:08;;;;;;;8.20;2.22;;;5.80;99.90;;;;;;4970231;28;20041;-76
2024/02/02 04:24:33;;;;;;;14.23;1.95;;;5.80;99.90;;;;;;4935800;28;20123;-75
2024/02/02 04:26:59;;;;;;;18.95;3.55;;;5.80;99.90;;;;;;4947597;28;20055;-76
2024/02/02 04:29:24;;;;;;;15.95;2.13;;;5.80;99.90;;;;;;4944309;28;20058;-76
2024/02/02 04:31:50;;;;;;;15.15;2.90;;;5.80;99.90;;;;;;4942243;28;20055;-77
2024/02/02 04:34:16;;;;;;;14.35;3.25;;;5.80;99.90;;;;;;4942602;29;20035;-75
2024/02/02 04:36:41;;;;;;;12.27;2.15;;;5.80;99.90;;;;;;4938642;29;20055;-74
2024/02/02 04:39:08;;;;;;;20.90;2.83;;;5.80;99.90;;;;;;4940508;28;20527;-75
2024/02/02 04:41:34;;;;;;;11.10;2.67;;;5.70;99.90;;;;;;4940726;29;20114;-78
2024/02/02 04:44:00;;;;;;;23.52;3.33;;;5.70;99.90;;;;;;4941812;28;20070;-76
2024/02/02 04:46:25;;;;;;;18.70;2.25;;;5.70;99.90;;;;;;4939237;28;20067;-76
2024/02/02 04:48:51;;;;;;;16.58;2.50;;;5.60;99.90;;;;;;4940942;28;20039;-76
2024/02/02 04:51:17;;;;;;;21.30;2.50;;;5.70;99.90;;;;;;4945812;28;20047;-76
2024/02/02 04:53:43;;;;;;;10.85;1.80;;;5.70;99.90;;;;;;4945064;28;20044;-76
2024/02/02 04:56:09;;;;;;;27.73;2.65;;;5.70;99.90;;;;;;4944214;28;20416;-76
2024/02/02 04:58:34;;;;;;;9.10;2.28;;;5.70;99.90;;;;;;4948191;28;20036;-76
2024/02/02 05:01:00;;;;;;;12.43;2.55;;;5.60;99.90;;;;;;4950020;28;20050;-76
2024/02/02 05:03:26;;;;;;;32.50;3.15;;;5.70;99.90;;;;;;4945003;28;20393;-76
2024/02/02 05:05:51;;;;;;;12.00;1.80;;;5.70;99.90;;;;;;4942328;28;20047;-75
2024/02/02 05:08:17;;;;;;;13.85;2.42;;;5.70;99.90;;;;;;4943091;28;20500;-75
2024/02/02 05:10:42;;;;;;;16.90;2.13;;;5.60;99.90;;;;;;4945444;28;20047;-76
2024/02/02 05:13:08;;;;;;;16.95;2.72;;;5.60;99.90;;;;;;4944079;28;20115;-76
2024/02/02 05:15:35;;;;;;;21.05;3.17;;;5.60;99.90;;;;;;4940607;28;20031;-74
2024/02/02 05:18:01;;;;;;;25.25;3.03;;;5.50;99.90;;;;;;4934653;29;20083;-77
2024/02/02 05:20:26;;;;;;;15.15;1.65;;;5.50;99.90;;;;;;4942400;28;20034;-74
2024/02/02 05:22:52;;;;;;;15.85;3.45;;;5.50;99.90;;;;;;4936841;28;20193;-74
2024/02/02 05:25:17;;;;;;;12.00;1.77;;;5.50;99.90;;;;;;4939655;28;20047;-76
2024/02/02 05:27:43;;;;;;;12.65;2.88;;;5.50;99.90;;;;;;4964486;28;20046;-76
2024/02/02 05:30:09;;;;;;;18.30;3.15;;;5.50;99.90;;;;;;4946751;28;20044;-76
2024/02/02 05:32:34;;;;;;;15.25;1.48;;;5.50;99.90;;;;;;4945524;28;20411;-75
2024/02/02 05:35:00;;;;;;;9.30;1.77;;;5.40;99.90;;;;;;4943668;28;20665;-76
2024/02/02 05:37:25;;;;;;;16.00;2.38;;;5.40;99.90;;;;;;4941423;28;20078;-76
2024/02/02 05:39:51;;;;;;;21.27;3.17;;;5.40;99.90;;;;;;4973825;28;20054;-76
2024/02/02 05:42:16;;;;;;;15.23;2.40;;;5.40;99.90;;;;;;4940589;28;20046;-73
2024/02/02 05:44:42;;;;;;;7.93;1.75;;;5.40;99.90;;;;;;4937347;28;20049;-76
2024/02/02 05:47:08;;;;;;;7.97;1.75;;;5.40;99.90;;;;;;4948281;28;20036;-75
2024/02/02 05:49:34;;;;;;;11.48;1.80;;;5.40;99.90;;;;;;4933995;28;20038;-76
2024/02/02 05:52:00;;;;;;;14.82;3.15;;;5.40;99.90;;;;;;4942944;29;20082;-76
2024/02/02 05:54:26;;;;;;;14.70;2.10;;;5.40;99.90;;;;;;4941340;28;20032;-75
2024/02/02 05:56:51;;;;;;;19.95;3.40;;;5.30;99.90;;;;;;4939879;28;20576;-75
2024/02/02 05:59:18;;;;;;;11.63;2.03;;;5.30;99.90;;;;;;4940955;28;20087;-76
2024/02/02 06:01:44;;;;;;;17.45;2.95;;;5.40;99.90;;;;;;4940010;28;20103;-76
2024/02/02 06:04:10;;;;;;;18.55;2.95;;;5.30;99.90;;;;;;4939187;28;20043;-75
2024/02/02 06:06:35;;;;;;;18.83;2.53;;;5.40;99.90;;;;;;4939252;28;20086;-75
2024/02/02 06:09:01;;;;;;;14.23;2.00;;;5.40;99.90;;;;;;4949348;28;20124;-75
2024/02/02 06:11:27;;;;;;;20.70;3.03;;;5.40;99.90;;;;;;4970636;28;20039;-76
2024/02/02 06:13:55;;;;;;;17.27;2.78;;;5.40;99.90;;;;;;4942796;28;20043;-75
2024/02/02 06:16:25;;;;;;;25.63;4.15;;;5.40;99.90;;;;;;4946526;29;20070;-75
2024/02/02 06:18:51;;;;;;;9.80;1.85;;;5.50;99.90;;;;;;4943088;28;20098;-75
2024/02/02 06:21:17;;;;;;;12.18;2.60;;;5.40;99.90;;;;;;4949083;28;20468;-77
2024/02/02 06:23:42;;;;;;;15.77;3.08;;;5.40;99.90;;;;;;4947647;28;20152;-76
2024/02/02 06:26:08;;;;;;;12.90;2.50;;;5.40;99.90;;;;;;4941672;28;20039;-76
2024/02/02 06:28:33;;;;;;;31.92;4.22;;;5.40;99.90;;;;;;4942545;28;20640;-76
2024/02/02 06:30:59;;;;;;;20.70;3.08;;;5.40;99.90;;;;;;4940371;29;20106;-76
2024/02/02 06:33:24;;;;;;;21.30;4.40;;;5.40;99.90;;;;;;4946905;28;20031;-77
2024/02/02 06:35:50;;;;;;;24.58;3.80;;;5.30;99.90;;;;;;4941003;28;20070;-76
2024/02/02 06:38:15;;;;;;;13.50;2.47;;;5.40;99.90;;;;;;4942128;28;20420;-75
2024/02/02 06:40:41;;;;;;;26.67;4.45;;;5.40;99.90;;;;;;4949102;28;20145;-75
2024/02/02 06:43:06;;;;;;;25.15;4.15;;;5.40;99.90;;;;;;4937681;28;20114;-75
2024/02/02 06:45:33;;;;;;;21.25;2.72;;;5.30;99.90;;;;;;4944431;28;20110;-77
2024/02/02 06:47:58;;;;;;;22.85;3.17;;;5.30;99.90;;;;;;4973723;28;20043;-75
2024/02/02 06:50:24;;;;;;;10.80;3.17;;;5.30;99.90;;;;;;4940293;28;20031;-76
2024/02/02 06:52:50;;;;;;;21.35;4.03;;;5.30;99.90;;;;;;4949585;28;20515;-76
2024/02/02 06:55:15;;;;;;;25.08;4.53;;;5.30;99.90;;;;;;4946445;28;20106;-76
2024/02/02 06:57:42;;;;;;;23.48;3.38;;;5.30;99.90;;;;;;4941261;28;20050;-75
2024/02/02 07:00:13;;;;;;;22.25;4.15;;;5.30;99.90;;;;;;4952401;28;20035;-76
2024/02/02 07:02:38;;;;;;;13.15;4.07;;;5.30;99.90;;;;;;4945661;28;20519;-75
2024/02/02 07:05:04;;;;;;;22.50;4.63;;;5.40;99.90;;;;;;4948014;28;20047;-76
2024/02/02 07:07:30;;;;;;;17.75;4.15;;;5.40;99.90;;;;;;4944765;28;20148;-75
2024/02/02 07:09:56;;;;;;;21.15;3.08;;;5.40;99.90;;;;;;4945594;29;20054;-71
2024/02/02 07:12:55;;;;;;;33.40;5.53;;;5.40;99.90;;;;;;4943519;28;20119;-76
2024/02/02 07:15:21;;;;;;;17.60;4.30;;;5.40;99.90;;;;;;4956121;28;20027;-75
2024/02/02 07:17:47;;;;;;;17.08;4.75;;;5.40;99.90;;;;;;4958301;28;20050;-76
2024/02/02 07:20:22;;;;;;;23.08;4.25;;;5.40;99.90;;;;;;4956607;28;20496;-76
2024/02/02 07:22:48;;;;;;;16.70;3.55;;;5.40;99.90;;;;;;4943421;28;20058;-75
2024/02/02 07:25:18;;;;;;;14.75;3.60;;;5.40;99.90;;;;;;4947791;28;20035;-73
2024/02/02 07:27:47;;;;;;;22.73;4.27;;;5.40;99.90;;;;;;4946136;28;20054;-75
2024/02/02 07:30:34;;;;;;;20.38;3.22;;;5.40;99.90;;;;;;4942916;28;20374;-74
2024/02/02 07:33:00;;;;;;;18.67;3.85;;;5.40;99.90;;;;;;4931898;28;20050;-75
2024/02/02 07:35:32;;;;;;;19.95;3.67;;;5.40;99.90;;;;;;4944409;28;20031;-76
2024/02/02 07:38:05;;;;;;;19.83;3.85;;;5.40;99.90;;;;;;4972181;28;20479;-75
2024/02/02 07:40:30;;;;;;;23.02;4.65;;;5.50;99.90;;;;;;4946621;28;20468;-76
2024/02/02 07:42:57;;;;;;;21.45;4.43;;;5.50;99.90;;;;;;4970697;28;20043;-76
2024/02/02 07:45:22;;;;;;;19.30;4.32;;;5.50;99.90;;;;;;4941140;28;20066;-77
2024/02/02 07:47:48;;;;;;;29.73;3.83;;;5.50;99.90;;;;;;4944648;28;20036;-77
2024/02/02 07:50:13;;;;;;;22.05;4.03;;;5.50;99.90;;;;;;4942130;28;20070;-73
2024/02/02 07:52:39;;;;;;;25.50;4.07;;;5.60;99.90;;;;;;4948306;28;20046;-75
2024/02/02 07:55:05;;;;;;;14.70;2.78;;;5.60;99.90;;;;;;4969643;28;20035;-76
2024/02/02 07:57:31;;;;;;;15.65;3.72;;;5.60;99.90;;;;;;4936578;28;20039;-75
2024/02/02 07:59:56;;;;;;;20.77;4.15;;;5.70;99.90;;;;;;4947597;28;20047;-73
2024/02/02 08:02:24;;;;;;;27.38;3.20;;;5.70;99.90;;;;;;4945564;28;20062;-73
2024/02/02 08:04:49;;;;;;;24.80;3.80;;;5.70;99.90;;;;;;4941551;28;20106;-74
2024/02/02 08:07:15;;;;;;;24.50;3.53;;;5.80;99.90;;;;;;4972282;28;20063;-76
2024/02/02 08:09:40;;;;;;;23.40;3.95;;;5.80;99.90;;;;;;4941966;28;20036;-75
2024/02/02 08:12:06;;;;;;;17.50;2.63;;;5.80;99.90;;;;;;4945038;28;20176;-73
2024/02/02 08:14:32;;;;;;;24.85;3.92;;;5.90;99.90;;;;;;4940374;29;20043;-75
2024/02/02 08:16:58;;;;;;;24.38;4.20;;;6.00;99.90;;;;;;4947129;28;20039;-76
2024/02/02 08:19:24;;;;;;;23.20;3.60;;;6.00;99.90;;;;;;4949183;28;20043;-75
2024/02/02 08:21:50;;;;;;;25.58;3.72;;;6.00;99.90;;;;;;4951280;28;20175;-75
2024/02/02 08:24:15;;;;;;;16.88;3.42;;;6.10;99.90;;;;;;4930570;29;20039;-76
2024/02/02 08:26:41;;;;;;;25.98;3.17;;;6.10;99.90;;;;;;4929331;28;20039;-76
2024/02/02 08:29:06;;;;;;;25.33;4.18;;;6.20;99.90;;;;;;4943784;28;20039;-76
2024/02/02 08:31:33;;;;;;;24.95;3.38;;;6.20;99.90;;;;;;4942813;28;20105;-76
2024/02/02 08:33:58;;;;;;;14.52;3.58;;;6.30;99.90;;;;;;4943519;28;20035;-75
2024/02/02 08:36:24;;;;;;;18.75;3.65;;;6.30;99.90;;;;;;4945443;28;20182;-75
2024/02/02 08:38:50;;;;;;;22.80;4.93;;;6.30;99.90;;;;;;4946087;28;20046;-74
2024/02/02 08:41:16;;;;;;;24.42;5.22;;;6.40;99.90;;;;;;4942261;28;20789;-75
2024/02/02 08:43:42;;;;;;;20.92;2.85;;;6.40;99.90;;;;;;4955721;28;20072;-76
2024/02/02 08:46:12;;;;;;;25.50;4.47;;;6.50;99.90;;;;;;4949359;28;20059;-74
2024/02/02 08:48:45;;;;;;;16.52;4.03;;;6.60;99.90;;;;;;4948125;28;20120;-76
2024/02/02 08:51:22;;;;;;;23.85;4.78;;;6.60;99.90;;;;;;4961407;28;20047;-75
2024/02/02 08:54:14;;;;;;;20.73;3.22;;;6.70;99.90;;;;;;4935327;28;20098;-76
2024/02/02 08:56:40;;;;;;;32.28;3.40;;;6.70;99.90;;;;;;4943004;28;20032;-75
2024/02/02 08:59:28;;;;;;;24.70;4.15;;;6.80;99.90;;;;;;4943093;28;20105;-75
2024/02/02 09:01:53;;;;;;;28.58;3.83;;;6.80;99.90;;;;;;4943718;29;20579;-77
2024/02/02 09:04:34;;;;;;;24.17;3.30;;;6.90;99.90;;;;;;4948389;28;20031;-74
2024/02/02 09:07:00;;;;;;;11.52;2.65;;;7.00;99.90;;;;;;4939880;28;20047;-76
2024/02/02 09:09:26;;;;;;;17.40;2.35;;;7.10;99.90;;;;;;4941967;28;20036;-75
2024/02/02 09:11:51;;;;;;;22.75;3.35;;;7.10;99.90;;;;;;4944947;29;20118;-76
2024/02/02 09:14:17;;;;;;;23.73;2.55;;;7.20;99.90;;;;;;4941971;28;20035;-76
2024/02/02 09:16:48;;;;;;;42.28;3.30;;;7.30;99.90;;;;;;4946457;28;20039;-78
2024/02/02 09:19:26;;;;;;;24.25;4.15;;;7.40;99.90;;;;;;4942087;28;20047;-75
2024/02/02 09:21:55;;;;;;;24.55;4.28;;;7.40;99.90;;;;;;4945148;28;20042;-77
2024/02/02 09:24:43;;;;;;;19.48;4.70;;;7.40;99.90;;;;;;4958862;28;20043;-78
2024/02/02 09:27:32;;;;;;;22.02;3.95;;;7.50;99.90;;;;;;4942607;28;20039;-72
2024/02/02 09:29:59;;;;;;;26.65;3.38;;;7.60;99.90;;;;;;4943951;28;20046;-74
2024/02/02 09:32:26;;;;;;;22.95;5.20;;;7.60;99.90;;;;;;4947081;28;20057;-76
2024/02/02 09:34:52;;;;;;;20.02;3.05;;;7.60;99.90;;;;;;4942972;28;20519;-75
2024/02/02 09:37:24;;;;;;;20.30;3.80;;;7.70;99.90;;;;;;4943087;28;20039;-75
2024/02/02 09:39:56;;;;;;;30.45;4.93;;;7.70;99.90;;;;;;4943690;28;20035;-77
2024/02/02 09:42:54;;;;;;;35.83;6.10;;;7.80;99.90;;;;;;4948987;28;20031;-76
2024/02/02 09:45:32;;;;;;;32.22;4.45;;;7.80;99.90;;;;;;4947950;29;20123;-76
2024/02/02 09:48:19;;;;;;;19.10;3.20;;;7.80;99.90;;;;;;4964169;28;20031;-73
2024/02/02 09:50:52;;;;;;;23.27;3.80;;;7.90;99.90;;;;;;4946537;28;20964;-75
2024/02/02 09:53:32;;;;;;;22.10;3.72;;;8.00;99.90;;;;;;4941223;28;20428;-75
2024/02/02 09:56:01;;;;;;;23.52;4.43;;;8.10;99.90;;;;;;4950898;28;20055;-72
2024/02/02 09:58:48;;;;;;;22.38;3.65;;;8.10;99.90;;;;;;4950645;28;20047;-76
2024/02/02 10:01:28;;;;;;;28.17;3.97;;;8.20;99.90;;;;;;4949841;28;20043;-73
2024/02/02 10:04:22;;;;;;;23.15;4.07;;;8.30;99.90;;;;;;4951750;29;20039;-77
2024/02/02 10:07:19;;;;;;;25.23;3.35;;;8.30;99.90;;;;;;4941164;28;20043;-77
2024/02/02 10:09:50;;;;;;;24.48;4.45;;;8.30;99.90;;;;;;4943549;28;20047;-77
2024/02/02 10:12:46;;;;;;;21.42;4.47;;;8.40;99.90;;;;;;4945887;28;20272;-75
2024/02/02 10:15:19;;;;;;;27.58;4.43;;;8.50;99.90;;;;;;4949550;28;20055;-77
2024/02/02 10:18:12;;;;;;;22.30;4.25;;;8.60;99.90;;;;;;4971943;28;20051;-77
2024/02/02 10:20:43;;;;;;;24.10;4.78;;;8.60;99.90;;;;;;4947433;28;20064;-76
2024/02/02 10:23:46;;;;;;;18.13;3.65;;;8.70;99.90;;;;;;4972126;28;20035;-75
2024/02/02 10:26:22;;;;;;;13.90;2.88;;;8.80;99.90;;;;;;4881343;29;20071;-76
2024/02/02 10:28:56;;;;;;;21.52;4.10;;;8.90;99.90;;;;;;4950648;28;20032;-76
2024/02/02 10:31:46;;;;;;;22.80;4.03;;;8.90;99.90;;;;;;4972483;28;20039;-75
2024/02/02 10:34:38;;;;;;;23.55;4.82;;;8.90;99.90;;;;;;4939531;28;20043;-75
2024/02/02 10:37:37;;;;;;;18.17;3.85;;;9.00;99.90;;;;;;4940701;28;20040;-74
2024/02/02 10:40:09;;;;;;;18.33;4.68;;;9.10;99.90;;;;;;4938001;28;20114;-76
2024/02/02 10:42:53;;;;;;;19.75;3.42;;;9.10;99.90;;;;;;4944634;28;20110;-75
2024/02/02 10:45:43;;;;;;;15.95;3.28;;;9.20;99.90;;;;;;4972852;28;20065;-74
2024/02/02 10:48:39;;;;;;;14.90;4.03;;;9.20;99.90;;;;;;4940368;29;20067;-74
2024/02/02 10:51:12;;;;;;;18.80;4.43;;;9.20;99.90;;;;;;4941965;28;20035;-74
2024/02/02 10:54:03;;;;;;;15.50;3.42;;;9.30;99.90;;;;;;4970386;28;20046;-75
2024/02/02 10:56:54;;;;;;;17.83;4.82;;;9.30;99.90;;;;;;4945248;28;20436;-74
2024/02/02 10:59:48;;;;;;;25.58;3.97;;;9.40;99.90;;;;;;4943139;28;20040;-75
2024/02/02 11:02:22;;;;;;;29.73;5.53;;;9.40;99.90;;;;;;4953124;28;20043;-76
2024/02/02 11:05:28;;;;;;;30.83;4.35;;;9.40;99.90;;;;;;4951344;28;20059;-76
2024/02/02 11:08:08;;;;;;;25.35;5.25;;;9.40;99.90;;;;;;4939041;28;20035;-77
2024/02/02 11:10:58;;;;;;;38.92;5.15;;;9.50;99.90;;;;;;4941586;28;20046;-75
2024/02/02 11:13:35;;;;;;;17.80;3.90;;;9.50;99.90;;;;;;4941542;28;20039;-75
2024/02/02 11:16:29;;;;;;;36.10;4.97;;;9.50;99.90;;;;;;4937474;28;20121;-74
2024/02/02 11:19:16;;;;;;;26.35;3.83;;;9.60;99.90;;;;;;4955055;28;20140;-76
2024/02/02 11:22:06;;;;;;;17.17;3.92;;;9.60;99.90;;;;;;4944190;28;20500;-76
2024/02/02 11:24:48;;;;;;;31.57;4.67;;;9.60;99.90;;;;;;4936387;28;20118;-75
2024/02/02 11:27:19;;;;;;;17.02;3.50;;;9.60;99.90;;;;;;4940774;28;20042;-74
2024/02/02 11:30:02;;;;;;;25.27;4.03;;;9.60;99.90;;;;;;4948339;28;21508;-75
2024/02/02 11:33:00;;;;;;;22.52;3.97;;;9.50;99.90;;;;;;4939282;28;20038;-76
2024/02/02 11:35:52;;;;;;;25.75;5.15;;;9.40;99.90;;;;;;4972466;28;21518;-75
2024/02/02 11:38:23;;;;;;;26.55;4.35;;;9.40;99.90;;;;;;4944086;28;20110;-75
2024/02/02 11:40:51;;;;;;;23.35;3.53;;;9.40;99.90;;;;;;4948487;28;20859;-75
2024/02/02 11:43:17;;;;;;;19.48;4.22;;;9.40;99.90;;;;;;4944340;28;20035;-74
2024/02/02 11:45:46;;;;;;;20.45;3.13;;;9.40;99.90;;;;;;4944626;28;20031;-75
2024/02/02 11:48:41;;;;;;;25.65;3.67;;;9.40;99.90;;;;;;4939469;28;20130;-76
2024/02/02 11:51:09;;;;;;;9.55;4.10;;;9.40;99.90;;;;;;4936180;28;20043;-75
2024/02/02 11:53:52;;;;;;;26.77;3.30;;;9.40;99.90;;;;;;4942481;28;20039;-74
2024/02/02 11:56:26;;;;;;;18.13;3.67;;;9.30;99.90;;;;;;4941263;29;20081;-75
2024/02/02 11:59:04;;;;;;;18.38;4.65;;;9.40;99.90;;;;;;4948865;28;20469;-76
2024/02/02 12:02:08;;;;;;;16.65;3.88;;;9.40;99.90;;;;;;4943501;28;20047;-77
2024/02/02 12:05:08;;;;;;;12.13;3.30;;;9.40;99.90;;;;;;4934898;29;20099;-74
2024/02/02 12:08:02;;;;;;;15.25;3.85;;;9.40;99.90;;;;;;4933833;28;20047;-74
2024/02/02 12:10:29;;;;;;;18.70;4.53;;;9.40;99.90;;;;;;4943082;28;20054;-75
2024/02/02 12:13:01;;;;;;;14.00;3.33;;;9.40;99.90;;;;;;4944694;28;20122;-75
2024/02/02 12:15:27;;;;;;;16.10;4.22;;;9.40;99.90;;;;;;4944273;28;20035;-75
2024/02/02 12:17:53;;;;;;;21.63;3.95;;;9.40;99.90;;;;;;4948465;28;20031;-75
2024/02/02 12:20:21;;;;;;;18.48;3.97;;;9.40;99.90;;;;;;4965831;28;20385;-76
2024/02/02 12:22:47;;;;;;;15.10;3.25;;;9.40;99.90;;;;;;4945935;28;20419;-76
2024/02/02 12:25:14;;;;;;;15.98;3.83;;;9.40;99.90;;;;;;4945244;28;20035;-76
2024/02/02 12:27:40;;;;;;;11.73;3.38;;;9.50;99.90;;;;;;4940918;28;20504;-74
2024/02/02 12:30:10;;;;;;;13.02;3.38;;;9.50;99.90;;;;;;4945688;28;20531;-74
2024/02/02 12:32:36;;;;;;;12.15;3.90;;;9.60;99.90;;;;;;4947676;28;20034;-75
2024/02/02 12:35:04;;;;;;;11.02;2.97;;;9.60;99.90;;;;;;4943838;28;20516;-77
2024/02/02 12:37:51;;;;;;;18.30;3.38;;;9.50;99.90;;;;;;4955488;28;20038;-76
2024/02/02 12:40:20;;;;;;;15.68;4.43;;;9.60;99.90;;;;;;4939082;28;20051;-74
2024/02/02 12:42:47;;;;;;;17.95;4.78;;;9.60;99.90;;;;;;4936293;28;20040;-75
2024/02/02 12:45:14;;;;;;;24.17;4.20;;;9.60;99.90;;;;;;4944571;28;20118;-72
2024/02/02 12:47:44;;;;;;;13.70;3.85;;;9.70;99.90;;;;;;4942234;28;20122;-75
2024/02/02 12:50:14;;;;;;;22.23;4.15;;;9.70;99.90;;;;;;4940817;28;20109;-75
2024/02/02 12:52:42;;;;;;;14.20;3.03;;;9.70;99.90;;;;;;4943210;28;20115;-74
2024/02/02 12:55:08;;;;;;;13.82;4.00;;;9.70;99.90;;;;;;4938247;28;20031;-76
2024/02/02 12:57:36;;;;;;;15.32;3.58;;;9.80;99.90;;;;;;4941098;28;20042;-74
2024/02/02 13:00:03;;;;;;;14.05;2.97;;;9.80;99.90;;;;;;4943154;28;20039;-74
2024/02/02 13:02:29;;;;;;;12.10;2.60;;;9.70;99.90;;;;;;4944128;28;20024;-75